sensor_id;sensor_type;location;lat;lon;timestamp;P1;durP1;ratioP1;P2;durP2;ratioP2
33491;SDS011;20010;51.488;7.232;2022-11-15T00:00:56;11.70;;;10.50;;
33491;SDS011;20010;51.488;7.232;2022-11-15T00:03:26;10.80;;;9.85;;
33491;SDS011;20010;51.488;7.232;2022-11-15T00:08:20;11.57;;;10.40;;
33491;SDS011;20010;51.488;7.232;2022-11-15T00:10:54;10.07;;;9.15;;
33491;SDS011;20010;51.488;7.232;2022-11-15T00:13:22;12.05;;;10.88;;
33491;SDS011;20010;51.488;7.232;2022-11-15T00:15:48;9.70;;;8.75;;
33491;SDS011;20010;51.488;7.232;2022-11-15T00:18:15;10.73;;;9.85;;
33491;SDS011;20010;51.488;7.232;2022-11-15T00:20:42;10.82;;;9.98;;
33491;SDS011;20010;51.488;7.232;2022-11-15T00:23:10;10.32;;;9.32;;
33491;SDS011;20010;51.488;7.232;2022-11-15T00:25:37;11.13;;;10.13;;
33491;SDS011;20010;51.488;7.232;2022-11-15T00:28:03;10.55;;;9.60;;
33491;SDS011;20010;51.488;7.232;2022-11-15T00:30:30;10.70;;;9.73;;
33491;SDS011;20010;51.488;7.232;2022-11-15T00:33:01;12.32;;;10.13;;
33491;SDS011;20010;51.488;7.232;2022-11-15T00:35:30;10.63;;;9.55;;
33491;SDS011;20010;51.488;7.232;2022-11-15T00:37:58;10.20;;;9.38;;
33491;SDS011;20010;51.488;7.232;2022-11-15T00:40:25;11.10;;;9.93;;
33491;SDS011;20010;51.488;7.232;2022-11-15T00:42:52;10.88;;;9.95;;
33491;SDS011;20010;51.488;7.232;2022-11-15T00:45:19;11.27;;;10.15;;
33491;SDS011;20010;51.488;7.232;2022-11-15T00:47:46;10.70;;;9.80;;
33491;SDS011;20010;51.488;7.232;2022-11-15T00:50:12;11.15;;;10.10;;
33491;SDS011;20010;51.488;7.232;2022-11-15T00:52:41;11.55;;;10.23;;
33491;SDS011;20010;51.488;7.232;2022-11-15T00:55:09;10.63;;;9.52;;
33491;SDS011;20010;51.488;7.232;2022-11-15T00:57:43;11.07;;;10.02;;
33491;SDS011;20010;51.488;7.232;2022-11-15T01:00:10;10.90;;;9.80;;
33491;SDS011;20010;51.488;7.232;2022-11-15T01:02:37;10.38;;;9.50;;
33491;SDS011;20010;51.488;7.232;2022-11-15T01:05:04;10.55;;;9.55;;
33491;SDS011;20010;51.488;7.232;2022-11-15T01:07:32;11.02;;;9.98;;
33491;SDS011;20010;51.488;7.232;2022-11-15T01:09:59;10.88;;;9.40;;
33491;SDS011;20010;51.488;7.232;2022-11-15T01:12:25;11.70;;;9.93;;
33491;SDS011;20010;51.488;7.232;2022-11-15T01:14:52;10.60;;;9.63;;
33491;SDS011;20010;51.488;7.232;2022-11-15T01:17:19;9.77;;;9.00;;
33491;SDS011;20010;51.488;7.232;2022-11-15T01:19:45;10.73;;;9.70;;
33491;SDS011;20010;51.488;7.232;2022-11-15T01:22:12;10.80;;;9.32;;
33491;SDS011;20010;51.488;7.232;2022-11-15T01:24:39;9.73;;;8.80;;
33491;SDS011;20010;51.488;7.232;2022-11-15T01:27:06;10.85;;;9.95;;
33491;SDS011;20010;51.488;7.232;2022-11-15T01:29:33;11.18;;;8.73;;
33491;SDS011;20010;51.488;7.232;2022-11-15T01:31:59;10.32;;;9.52;;
33491;SDS011;20010;51.488;7.232;2022-11-15T01:34:26;12.32;;;9.65;;
33491;SDS011;20010;51.488;7.232;2022-11-15T01:36:53;9.95;;;9.25;;
33491;SDS011;20010;51.488;7.232;2022-11-15T01:39:20;9.02;;;8.32;;
33491;SDS011;20010;51.488;7.232;2022-11-15T01:41:46;10.15;;;9.32;;
33491;SDS011;20010;51.488;7.232;2022-11-15T01:47:15;10.00;;;9.10;;
33491;SDS011;20010;51.488;7.232;2022-11-15T01:49:57;9.77;;;8.88;;
33491;SDS011;20010;51.488;7.232;2022-11-15T01:52:30;10.13;;;9.20;;
33491;SDS011;20010;51.488;7.232;2022-11-15T01:57:31;9.32;;;8.55;;
33491;SDS011;20010;51.488;7.232;2022-11-15T01:59:58;10.60;;;9.60;;
33491;SDS011;20010;51.488;7.232;2022-11-15T02:02:26;9.82;;;9.13;;
33491;SDS011;20010;51.488;7.232;2022-11-15T02:04:53;9.82;;;8.98;;
33491;SDS011;20010;51.488;7.232;2022-11-15T02:07:21;9.85;;;8.82;;
33491;SDS011;20010;51.488;7.232;2022-11-15T02:09:48;9.88;;;9.07;;
33491;SDS011;20010;51.488;7.232;2022-11-15T02:12:19;10.00;;;9.13;;
33491;SDS011;20010;51.488;7.232;2022-11-15T02:14:48;9.65;;;8.93;;
33491;SDS011;20010;51.488;7.232;2022-11-15T02:20:14;10.20;;;9.30;;
33491;SDS011;20010;51.488;7.232;2022-11-15T02:26:29;10.00;;;9.23;;
33491;SDS011;20010;51.488;7.232;2022-11-15T02:29:37;11.05;;;9.57;;
33491;SDS011;20010;51.488;7.232;2022-11-15T02:35:29;10.50;;;9.70;;
33491;SDS011;20010;51.488;7.232;2022-11-15T02:38:13;9.77;;;8.77;;
33491;SDS011;20010;51.488;7.232;2022-11-15T02:43:22;9.38;;;8.57;;
33491;SDS011;20010;51.488;7.232;2022-11-15T02:46:23;9.20;;;8.48;;
33491;SDS011;20010;51.488;7.232;2022-11-15T02:49:16;9.40;;;8.50;;
33491;SDS011;20010;51.488;7.232;2022-11-15T02:51:43;9.85;;;8.88;;
33491;SDS011;20010;51.488;7.232;2022-11-15T02:54:14;9.85;;;8.82;;
33491;SDS011;20010;51.488;7.232;2022-11-15T02:56:46;9.65;;;8.82;;
33491;SDS011;20010;51.488;7.232;2022-11-15T02:59:17;9.63;;;8.80;;
33491;SDS011;20010;51.488;7.232;2022-11-15T03:02:15;11.70;;;9.90;;
33491;SDS011;20010;51.488;7.232;2022-11-15T03:04:51;10.73;;;9.85;;
33491;SDS011;20010;51.488;7.232;2022-11-15T03:10:02;10.18;;;9.32;;
33491;SDS011;20010;51.488;7.232;2022-11-15T03:12:36;12.15;;;10.95;;
33491;SDS011;20010;51.488;7.232;2022-11-15T03:15:12;12.98;;;10.80;;
33491;SDS011;20010;51.488;7.232;2022-11-15T03:17:47;10.80;;;9.77;;
33491;SDS011;20010;51.488;7.232;2022-11-15T03:20:19;11.23;;;10.23;;
33491;SDS011;20010;51.488;7.232;2022-11-15T03:22:46;11.55;;;10.52;;
33491;SDS011;20010;51.488;7.232;2022-11-15T03:25:19;10.13;;;9.10;;
33491;SDS011;20010;51.488;7.232;2022-11-15T03:27:50;10.85;;;9.95;;
33491;SDS011;20010;51.488;7.232;2022-11-15T03:30:19;11.13;;;10.00;;
33491;SDS011;20010;51.488;7.232;2022-11-15T03:32:51;11.15;;;10.18;;
33491;SDS011;20010;51.488;7.232;2022-11-15T03:35:23;10.68;;;9.88;;
33491;SDS011;20010;51.488;7.232;2022-11-15T03:38:14;10.30;;;9.40;;
33491;SDS011;20010;51.488;7.232;2022-11-15T03:40:57;11.18;;;10.10;;
33491;SDS011;20010;51.488;7.232;2022-11-15T03:48:52;10.43;;;9.40;;
33491;SDS011;20010;51.488;7.232;2022-11-15T03:51:41;10.35;;;9.45;;
33491;SDS011;20010;51.488;7.232;2022-11-15T03:54:08;10.32;;;9.30;;
33491;SDS011;20010;51.488;7.232;2022-11-15T03:56:37;11.10;;;10.10;;
33491;SDS011;20010;51.488;7.232;2022-11-15T03:59:04;11.25;;;10.20;;
33491;SDS011;20010;51.488;7.232;2022-11-15T04:01:31;12.63;;;11.40;;
33491;SDS011;20010;51.488;7.232;2022-11-15T04:03:58;10.10;;;9.25;;
33491;SDS011;20010;51.488;7.232;2022-11-15T04:06:24;9.68;;;8.98;;
33491;SDS011;20010;51.488;7.232;2022-11-15T04:08:51;9.30;;;8.38;;
33491;SDS011;20010;51.488;7.232;2022-11-15T04:11:18;9.98;;;9.07;;
33491;SDS011;20010;51.488;7.232;2022-11-15T04:13:44;10.50;;;9.48;;
33491;SDS011;20010;51.488;7.232;2022-11-15T04:16:11;11.02;;;10.02;;
33491;SDS011;20010;51.488;7.232;2022-11-15T04:18:38;10.57;;;9.68;;
33491;SDS011;20010;51.488;7.232;2022-11-15T04:21:05;9.45;;;8.75;;
33491;SDS011;20010;51.488;7.232;2022-11-15T04:23:50;9.85;;;9.00;;
33491;SDS011;20010;51.488;7.232;2022-11-15T04:26:35;10.55;;;9.57;;
33491;SDS011;20010;51.488;7.232;2022-11-15T04:29:02;12.50;;;9.43;;
33491;SDS011;20010;51.488;7.232;2022-11-15T04:31:47;9.20;;;8.60;;
33491;SDS011;20010;51.488;7.232;2022-11-15T04:34:14;11.07;;;10.07;;
33491;SDS011;20010;51.488;7.232;2022-11-15T04:36:41;10.38;;;9.50;;
33491;SDS011;20010;51.488;7.232;2022-11-15T04:39:26;12.73;;;9.55;;
33491;SDS011;20010;51.488;7.232;2022-11-15T04:41:53;9.65;;;8.85;;
33491;SDS011;20010;51.488;7.232;2022-11-15T04:44:20;10.70;;;9.80;;
33491;SDS011;20010;51.488;7.232;2022-11-15T04:46:46;9.30;;;8.60;;
33491;SDS011;20010;51.488;7.232;2022-11-15T04:49:13;11.70;;;10.60;;
33491;SDS011;20010;51.488;7.232;2022-11-15T04:51:40;11.35;;;10.32;;
33491;SDS011;20010;51.488;7.232;2022-11-15T04:54:07;9.85;;;9.05;;
33491;SDS011;20010;51.488;7.232;2022-11-15T04:56:33;10.48;;;9.48;;
33491;SDS011;20010;51.488;7.232;2022-11-15T04:59:00;10.93;;;10.00;;
33491;SDS011;20010;51.488;7.232;2022-11-15T05:01:27;9.95;;;8.90;;
33491;SDS011;20010;51.488;7.232;2022-11-15T05:03:54;9.70;;;8.90;;
33491;SDS011;20010;51.488;7.232;2022-11-15T05:06:39;10.63;;;9.23;;
33491;SDS011;20010;51.488;7.232;2022-11-15T05:09:06;10.32;;;9.38;;
33491;SDS011;20010;51.488;7.232;2022-11-15T05:11:33;10.07;;;9.18;;
33491;SDS011;20010;51.488;7.232;2022-11-15T05:13:59;10.32;;;9.35;;
33491;SDS011;20010;51.488;7.232;2022-11-15T05:16:26;10.23;;;9.35;;
33491;SDS011;20010;51.488;7.232;2022-11-15T05:18:53;10.55;;;9.65;;
33491;SDS011;20010;51.488;7.232;2022-11-15T05:21:20;9.95;;;9.15;;
33491;SDS011;20010;51.488;7.232;2022-11-15T05:23:47;11.18;;;10.30;;
33491;SDS011;20010;51.488;7.232;2022-11-15T05:26:14;9.68;;;8.88;;
33491;SDS011;20010;51.488;7.232;2022-11-15T05:28:43;10.60;;;9.70;;
33491;SDS011;20010;51.488;7.232;2022-11-15T05:31:14;12.60;;;11.40;;
33491;SDS011;20010;51.488;7.232;2022-11-15T05:33:55;11.07;;;10.20;;
33491;SDS011;20010;51.488;7.232;2022-11-15T05:36:38;10.18;;;9.38;;
33491;SDS011;20010;51.488;7.232;2022-11-15T05:39:08;11.90;;;10.68;;
33491;SDS011;20010;51.488;7.232;2022-11-15T05:41:36;10.35;;;9.65;;
33491;SDS011;20010;51.488;7.232;2022-11-15T05:44:10;15.00;;;13.60;;
33491;SDS011;20010;51.488;7.232;2022-11-15T05:46:40;12.20;;;11.27;;
33491;SDS011;20010;51.488;7.232;2022-11-15T05:49:09;10.63;;;9.65;;
33491;SDS011;20010;51.488;7.232;2022-11-15T05:51:40;10.10;;;9.25;;
33491;SDS011;20010;51.488;7.232;2022-11-15T05:54:10;10.82;;;9.85;;
33491;SDS011;20010;51.488;7.232;2022-11-15T05:56:37;10.35;;;9.52;;
33491;SDS011;20010;51.488;7.232;2022-11-15T05:59:05;10.68;;;9.88;;
33491;SDS011;20010;51.488;7.232;2022-11-15T06:01:33;11.20;;;10.30;;
33491;SDS011;20010;51.488;7.232;2022-11-15T06:04:00;10.30;;;9.60;;
33491;SDS011;20010;51.488;7.232;2022-11-15T06:06:27;10.52;;;9.60;;
33491;SDS011;20010;51.488;7.232;2022-11-15T06:08:55;11.20;;;10.40;;
33491;SDS011;20010;51.488;7.232;2022-11-15T06:11:21;10.70;;;9.90;;
33491;SDS011;20010;51.488;7.232;2022-11-15T06:13:48;10.95;;;10.15;;
33491;SDS011;20010;51.488;7.232;2022-11-15T06:16:15;10.38;;;9.68;;
33491;SDS011;20010;51.488;7.232;2022-11-15T06:18:42;10.57;;;9.57;;
33491;SDS011;20010;51.488;7.232;2022-11-15T06:21:09;9.95;;;9.25;;
33491;SDS011;20010;51.488;7.232;2022-11-15T06:23:36;10.73;;;9.73;;
33491;SDS011;20010;51.488;7.232;2022-11-15T06:26:02;9.95;;;9.15;;
33491;SDS011;20010;51.488;7.232;2022-11-15T06:28:32;9.27;;;8.60;;
33491;SDS011;20010;51.488;7.232;2022-11-15T06:31:03;10.17;;;9.30;;
33491;SDS011;20010;51.488;7.232;2022-11-15T06:33:31;9.57;;;8.73;;
33491;SDS011;20010;51.488;7.232;2022-11-15T06:36:05;9.18;;;8.48;;
33491;SDS011;20010;51.488;7.232;2022-11-15T06:38:42;8.40;;;7.78;;
33491;SDS011;20010;51.488;7.232;2022-11-15T06:41:10;7.93;;;7.43;;
33491;SDS011;20010;51.488;7.232;2022-11-15T06:43:39;8.70;;;8.10;;
33491;SDS011;20010;51.488;7.232;2022-11-15T06:46:06;8.13;;;7.53;;
33491;SDS011;20010;51.488;7.232;2022-11-15T06:48:33;8.55;;;6.93;;
33491;SDS011;20010;51.488;7.232;2022-11-15T06:51:01;7.65;;;7.15;;
33491;SDS011;20010;51.488;7.232;2022-11-15T06:53:29;8.15;;;7.38;;
33491;SDS011;20010;51.488;7.232;2022-11-15T06:56:01;7.45;;;6.97;;
33491;SDS011;20010;51.488;7.232;2022-11-15T06:58:29;7.05;;;6.55;;
33491;SDS011;20010;51.488;7.232;2022-11-15T07:01:00;7.60;;;6.95;;
33491;SDS011;20010;51.488;7.232;2022-11-15T07:03:28;6.88;;;6.43;;
33491;SDS011;20010;51.488;7.232;2022-11-15T07:05:56;6.90;;;6.50;;
33491;SDS011;20010;51.488;7.232;2022-11-15T07:08:32;6.80;;;6.32;;
33491;SDS011;20010;51.488;7.232;2022-11-15T07:10:59;7.20;;;6.70;;
33491;SDS011;20010;51.488;7.232;2022-11-15T07:13:36;7.88;;;7.38;;
33491;SDS011;20010;51.488;7.232;2022-11-15T07:16:07;6.82;;;6.32;;
33491;SDS011;20010;51.488;7.232;2022-11-15T07:18:39;6.97;;;6.38;;
33491;SDS011;20010;51.488;7.232;2022-11-15T07:21:09;6.10;;;5.80;;
33491;SDS011;20010;51.488;7.232;2022-11-15T07:23:37;6.35;;;5.95;;
33491;SDS011;20010;51.488;7.232;2022-11-15T07:26:04;6.93;;;6.10;;
33491;SDS011;20010;51.488;7.232;2022-11-15T07:28:32;7.03;;;6.38;;
33491;SDS011;20010;51.488;7.232;2022-11-15T07:31:01;6.38;;;6.07;;
33491;SDS011;20010;51.488;7.232;2022-11-15T07:33:33;7.13;;;6.63;;
33491;SDS011;20010;51.488;7.232;2022-11-15T07:36:01;6.65;;;6.25;;
33491;SDS011;20010;51.488;7.232;2022-11-15T07:38:29;6.90;;;6.47;;
33491;SDS011;20010;51.488;7.232;2022-11-15T07:41:00;7.30;;;6.80;;
33491;SDS011;20010;51.488;7.232;2022-11-15T07:43:30;6.72;;;6.22;;
33491;SDS011;20010;51.488;7.232;2022-11-15T07:46:04;6.30;;;5.90;;
33491;SDS011;20010;51.488;7.232;2022-11-15T07:48:36;6.00;;;5.68;;
33491;SDS011;20010;51.488;7.232;2022-11-15T07:51:13;10.25;;;9.35;;
33491;SDS011;20010;51.488;7.232;2022-11-15T07:53:41;6.72;;;6.25;;
33491;SDS011;20010;51.488;7.232;2022-11-15T07:56:09;6.65;;;6.25;;
33491;SDS011;20010;51.488;7.232;2022-11-15T07:58:37;6.90;;;6.35;;
33491;SDS011;20010;51.488;7.232;2022-11-15T08:01:04;6.07;;;5.70;;
33491;SDS011;20010;51.488;7.232;2022-11-15T08:03:32;6.72;;;6.20;;
33491;SDS011;20010;51.488;7.232;2022-11-15T08:06:00;7.15;;;6.57;;
33491;SDS011;20010;51.488;7.232;2022-11-15T08:08:28;7.93;;;7.43;;
33491;SDS011;20010;51.488;7.232;2022-11-15T08:10:56;6.25;;;5.75;;
33491;SDS011;20010;51.488;7.232;2022-11-15T08:13:23;6.30;;;5.90;;
33491;SDS011;20010;51.488;7.232;2022-11-15T08:15:50;6.35;;;5.97;;
33491;SDS011;20010;51.488;7.232;2022-11-15T08:18:23;5.88;;;5.55;;
33491;SDS011;20010;51.488;7.232;2022-11-15T08:20:50;6.13;;;5.43;;
33491;SDS011;20010;51.488;7.232;2022-11-15T08:23:17;5.93;;;5.63;;
33491;SDS011;20010;51.488;7.232;2022-11-15T08:25:44;7.85;;;6.55;;
33491;SDS011;20010;51.488;7.232;2022-11-15T08:28:11;5.88;;;5.45;;
33491;SDS011;20010;51.488;7.232;2022-11-15T08:30:38;6.10;;;5.80;;
33491;SDS011;20010;51.488;7.232;2022-11-15T08:33:12;5.93;;;5.63;;
33491;SDS011;20010;51.488;7.232;2022-11-15T08:35:40;6.00;;;5.60;;
33491;SDS011;20010;51.488;7.232;2022-11-15T08:38:08;6.35;;;5.95;;
33491;SDS011;20010;51.488;7.232;2022-11-15T08:40:35;5.95;;;5.65;;
33491;SDS011;20010;51.488;7.232;2022-11-15T08:43:03;6.07;;;5.78;;
33491;SDS011;20010;51.488;7.232;2022-11-15T08:45:30;6.15;;;5.80;;
33491;SDS011;20010;51.488;7.232;2022-11-15T08:48:01;6.40;;;5.95;;
33491;SDS011;20010;51.488;7.232;2022-11-15T08:50:29;6.63;;;6.22;;
33491;SDS011;20010;51.488;7.232;2022-11-15T08:52:56;6.28;;;5.80;;
33491;SDS011;20010;51.488;7.232;2022-11-15T08:55:23;5.75;;;5.40;;
33491;SDS011;20010;51.488;7.232;2022-11-15T08:57:50;5.90;;;5.60;;
33491;SDS011;20010;51.488;7.232;2022-11-15T09:00:17;5.80;;;5.50;;
33491;SDS011;20010;51.488;7.232;2022-11-15T09:02:46;5.97;;;5.60;;
33491;SDS011;20010;51.488;7.232;2022-11-15T09:05:13;6.20;;;5.80;;
33491;SDS011;20010;51.488;7.232;2022-11-15T09:07:41;6.18;;;5.78;;
33491;SDS011;20010;51.488;7.232;2022-11-15T09:10:08;6.07;;;5.53;;
33491;SDS011;20010;51.488;7.232;2022-11-15T09:12:35;5.57;;;5.18;;
33491;SDS011;20010;51.488;7.232;2022-11-15T09:15:02;5.65;;;5.30;;
33491;SDS011;20010;51.488;7.232;2022-11-15T09:17:30;5.85;;;5.43;;
33491;SDS011;20010;51.488;7.232;2022-11-15T09:19:57;5.65;;;5.32;;
33491;SDS011;20010;51.488;7.232;2022-11-15T09:22:23;5.85;;;5.55;;
33491;SDS011;20010;51.488;7.232;2022-11-15T09:24:50;6.15;;;5.60;;
33491;SDS011;20010;51.488;7.232;2022-11-15T09:27:17;6.20;;;5.75;;
33491;SDS011;20010;51.488;7.232;2022-11-15T09:29:43;5.88;;;5.57;;
33491;SDS011;20010;51.488;7.232;2022-11-15T09:32:10;6.40;;;5.95;;
33491;SDS011;20010;51.488;7.232;2022-11-15T09:34:37;5.63;;;5.40;;
33491;SDS011;20010;51.488;7.232;2022-11-15T09:37:06;6.40;;;6.10;;
33491;SDS011;20010;51.488;7.232;2022-11-15T09:39:33;6.30;;;6.10;;
33491;SDS011;20010;51.488;7.232;2022-11-15T09:42:09;6.70;;;6.40;;
33491;SDS011;20010;51.488;7.232;2022-11-15T09:44:40;6.88;;;6.38;;
33491;SDS011;20010;51.488;7.232;2022-11-15T09:50:46;6.65;;;6.35;;
33491;SDS011;20010;51.488;7.232;2022-11-15T09:53:38;6.85;;;6.45;;
33491;SDS011;20010;51.488;7.232;2022-11-15T09:56:29;6.72;;;6.43;;
33491;SDS011;20010;51.488;7.232;2022-11-15T10:01:51;6.85;;;6.50;;
33491;SDS011;20010;51.488;7.232;2022-11-15T10:04:21;6.18;;;5.85;;
33491;SDS011;20010;51.488;7.232;2022-11-15T10:06:54;8.00;;;6.80;;
33491;SDS011;20010;51.488;7.232;2022-11-15T10:09:32;6.30;;;5.82;;
33491;SDS011;20010;51.488;7.232;2022-11-15T10:12:15;5.93;;;5.63;;
33491;SDS011;20010;51.488;7.232;2022-11-15T10:14:43;5.90;;;5.60;;
33491;SDS011;20010;51.488;7.232;2022-11-15T10:20:17;6.40;;;6.00;;
33491;SDS011;20010;51.488;7.232;2022-11-15T10:22:51;6.40;;;6.10;;
33491;SDS011;20010;51.488;7.232;2022-11-15T10:27:59;6.75;;;6.22;;
33491;SDS011;20010;51.488;7.232;2022-11-15T10:30:36;6.45;;;6.15;;
33491;SDS011;20010;51.488;7.232;2022-11-15T10:33:22;6.45;;;6.05;;
33491;SDS011;20010;51.488;7.232;2022-11-15T10:41:19;7.75;;;7.35;;
33491;SDS011;20010;51.488;7.232;2022-11-15T10:44:32;7.85;;;7.43;;
33491;SDS011;20010;51.488;7.232;2022-11-15T10:46:33;6.22;;;5.97;;
33491;SDS011;20010;51.488;7.232;2022-11-15T10:49:24;7.10;;;6.60;;
33491;SDS011;20010;51.488;7.232;2022-11-15T10:51:59;6.28;;;5.97;;
33491;SDS011;20010;51.488;7.232;2022-11-15T10:56:58;8.73;;;7.93;;
33491;SDS011;20010;51.488;7.232;2022-11-15T10:59:28;7.50;;;7.20;;
33491;SDS011;20010;51.488;7.232;2022-11-15T11:02:27;7.75;;;7.22;;
33491;SDS011;20010;51.488;7.232;2022-11-15T11:05:05;10.35;;;7.03;;
33491;SDS011;20010;51.488;7.232;2022-11-15T11:07:58;7.50;;;7.10;;
33491;SDS011;20010;51.488;7.232;2022-11-15T11:10:54;7.43;;;7.03;;
33491;SDS011;20010;51.488;7.232;2022-11-15T11:13:29;7.10;;;6.80;;
33491;SDS011;20010;51.488;7.232;2022-11-15T11:35:29;7.38;;;6.80;;
33491;SDS011;20010;51.488;7.232;2022-11-15T11:38:47;6.85;;;6.43;;
33491;SDS011;20010;51.488;7.232;2022-11-15T11:46:25;7.40;;;7.10;;
33491;SDS011;20010;51.488;7.232;2022-11-15T11:51:45;6.90;;;6.50;;
33491;SDS011;20010;51.488;7.232;2022-11-15T11:57:03;6.82;;;6.50;;
33491;SDS011;20010;51.488;7.232;2022-11-15T11:59:36;7.38;;;7.07;;
33491;SDS011;20010;51.488;7.232;2022-11-15T12:02:28;7.53;;;7.22;;
33491;SDS011;20010;51.488;7.232;2022-11-15T12:05:03;7.47;;;7.18;;
33491;SDS011;20010;51.488;7.232;2022-11-15T12:07:35;7.70;;;7.30;;
33491;SDS011;20010;51.488;7.232;2022-11-15T12:10:28;7.50;;;7.20;;
33491;SDS011;20010;51.488;7.232;2022-11-15T12:12:58;7.10;;;6.70;;
33491;SDS011;20010;51.488;7.232;2022-11-15T12:15:37;7.43;;;7.03;;
33491;SDS011;20010;51.488;7.232;2022-11-15T12:18:08;6.88;;;6.57;;
33491;SDS011;20010;51.488;7.232;2022-11-15T12:20:41;7.60;;;7.00;;
33491;SDS011;20010;51.488;7.232;2022-11-15T12:23:19;7.70;;;7.20;;
33491;SDS011;20010;51.488;7.232;2022-11-15T12:25:54;7.25;;;6.90;;
33491;SDS011;20010;51.488;7.232;2022-11-15T12:28:36;7.13;;;6.82;;
33491;SDS011;20010;51.488;7.232;2022-11-15T12:36:50;7.22;;;6.82;;
33491;SDS011;20010;51.488;7.232;2022-11-15T12:39:17;7.95;;;7.50;;
33491;SDS011;20010;51.488;7.232;2022-11-15T12:47:04;8.10;;;7.60;;
33491;SDS011;20010;51.488;7.232;2022-11-15T12:49:48;7.25;;;6.82;;
33491;SDS011;20010;51.488;7.232;2022-11-15T12:52:16;6.80;;;6.50;;
33491;SDS011;20010;51.488;7.232;2022-11-15T12:54:51;7.20;;;6.90;;
33491;SDS011;20010;51.488;7.232;2022-11-15T13:02:21;7.43;;;7.00;;
33491;SDS011;20010;51.488;7.232;2022-11-15T13:04:53;7.65;;;7.35;;
33491;SDS011;20010;51.488;7.232;2022-11-15T13:12:54;8.23;;;7.82;;
33491;SDS011;20010;51.488;7.232;2022-11-15T13:17:56;7.93;;;7.63;;
33491;SDS011;20010;51.488;7.232;2022-11-15T13:20:25;7.90;;;7.40;;
33491;SDS011;20010;51.488;7.232;2022-11-15T13:23:13;8.15;;;7.75;;
33491;SDS011;20010;51.488;7.232;2022-11-15T13:25:48;7.95;;;7.35;;
33491;SDS011;20010;51.488;7.232;2022-11-15T13:33:47;8.65;;;8.13;;
33491;SDS011;20010;51.488;7.232;2022-11-15T13:38:43;7.43;;;6.93;;
33491;SDS011;20010;51.488;7.232;2022-11-15T13:41:21;7.80;;;7.30;;
33491;SDS011;20010;51.488;7.232;2022-11-15T13:43:53;7.95;;;7.35;;
33491;SDS011;20010;51.488;7.232;2022-11-15T13:49:23;8.18;;;7.68;;
33491;SDS011;20010;51.488;7.232;2022-11-15T13:51:53;8.55;;;7.95;;
33491;SDS011;20010;51.488;7.232;2022-11-15T13:54:31;8.65;;;8.05;;
33491;SDS011;20010;51.488;7.232;2022-11-15T13:57:03;7.25;;;6.95;;
33491;SDS011;20010;51.488;7.232;2022-11-15T14:02:27;8.55;;;8.00;;
33491;SDS011;20010;51.488;7.232;2022-11-15T14:05:20;8.63;;;8.23;;
33491;SDS011;20010;51.488;7.232;2022-11-15T14:07:59;7.78;;;7.30;;
33491;SDS011;20010;51.488;7.232;2022-11-15T14:10:31;7.82;;;7.32;;
33491;SDS011;20010;51.488;7.232;2022-11-15T14:13:00;7.75;;;7.38;;
33491;SDS011;20010;51.488;7.232;2022-11-15T14:17:55;9.85;;;9.15;;
33491;SDS011;20010;51.488;7.232;2022-11-15T14:20:26;9.05;;;8.55;;
33491;SDS011;20010;51.488;7.232;2022-11-15T14:23:00;8.70;;;8.20;;
33491;SDS011;20010;51.488;7.232;2022-11-15T14:25:57;9.40;;;8.77;;
33491;SDS011;20010;51.488;7.232;2022-11-15T14:30:53;8.50;;;8.00;;
33491;SDS011;20010;51.488;7.232;2022-11-15T14:33:25;8.70;;;8.20;;
33491;SDS011;20010;51.488;7.232;2022-11-15T14:38:38;8.95;;;8.40;;
33491;SDS011;20010;51.488;7.232;2022-11-15T14:41:04;9.00;;;8.27;;
33491;SDS011;20010;51.488;7.232;2022-11-15T14:43:32;8.35;;;7.90;;
33491;SDS011;20010;51.488;7.232;2022-11-15T14:45:58;8.02;;;7.63;;
33491;SDS011;20010;51.488;7.232;2022-11-15T14:48:26;8.48;;;7.80;;
33491;SDS011;20010;51.488;7.232;2022-11-15T14:50:53;8.73;;;8.13;;
33491;SDS011;20010;51.488;7.232;2022-11-15T14:53:19;9.23;;;8.50;;
33491;SDS011;20010;51.488;7.232;2022-11-15T14:55:48;8.55;;;8.15;;
33491;SDS011;20010;51.488;7.232;2022-11-15T14:58:15;9.00;;;8.30;;
33491;SDS011;20010;51.488;7.232;2022-11-15T15:00:42;8.52;;;8.10;;
33491;SDS011;20010;51.488;7.232;2022-11-15T15:03:08;8.77;;;8.27;;
33491;SDS011;20010;51.488;7.232;2022-11-15T15:05:42;9.10;;;8.35;;
33491;SDS011;20010;51.488;7.232;2022-11-15T15:08:10;9.20;;;8.57;;
33491;SDS011;20010;51.488;7.232;2022-11-15T15:10:38;8.82;;;8.40;;
33491;SDS011;20010;51.488;7.232;2022-11-15T15:13:10;8.77;;;8.00;;
33491;SDS011;20010;51.488;7.232;2022-11-15T15:15:47;8.70;;;7.43;;
33491;SDS011;20010;51.488;7.232;2022-11-15T15:18:14;8.27;;;7.88;;
33491;SDS011;20010;51.488;7.232;2022-11-15T15:20:42;8.68;;;8.15;;
33491;SDS011;20010;51.488;7.232;2022-11-15T15:23:15;9.88;;;9.18;;
33491;SDS011;20010;51.488;7.232;2022-11-15T15:25:44;8.68;;;8.23;;
33491;SDS011;20010;51.488;7.232;2022-11-15T15:28:12;9.60;;;8.93;;
33491;SDS011;20010;51.488;7.232;2022-11-15T15:30:40;9.82;;;9.23;;
33491;SDS011;20010;51.488;7.232;2022-11-15T15:33:07;9.02;;;8.43;;
33491;SDS011;20010;51.488;7.232;2022-11-15T15:35:34;9.80;;;9.02;;
33491;SDS011;20010;51.488;7.232;2022-11-15T15:38:01;9.35;;;8.50;;
33491;SDS011;20010;51.488;7.232;2022-11-15T15:40:29;8.88;;;8.10;;
33491;SDS011;20010;51.488;7.232;2022-11-15T15:42:58;8.27;;;7.88;;
33491;SDS011;20010;51.488;7.232;2022-11-15T15:45:25;8.50;;;8.00;;
33491;SDS011;20010;51.488;7.232;2022-11-15T15:47:53;8.25;;;7.93;;
33491;SDS011;20010;51.488;7.232;2022-11-15T15:52:48;8.93;;;7.90;;
33491;SDS011;20010;51.488;7.232;2022-11-15T15:55:16;8.20;;;7.70;;
33491;SDS011;20010;51.488;7.232;2022-11-15T15:57:43;8.68;;;7.85;;
33491;SDS011;20010;51.488;7.232;2022-11-15T16:00:13;8.20;;;7.70;;
33491;SDS011;20010;51.488;7.232;2022-11-15T16:02:41;7.82;;;7.50;;
33491;SDS011;20010;51.488;7.232;2022-11-15T16:05:09;8.07;;;7.57;;
33491;SDS011;20010;51.488;7.232;2022-11-15T16:07:37;8.27;;;7.72;;
33491;SDS011;20010;51.488;7.232;2022-11-15T16:10:19;7.85;;;7.47;;
33491;SDS011;20010;51.488;7.232;2022-11-15T16:12:51;8.40;;;7.70;;
33491;SDS011;20010;51.488;7.232;2022-11-15T16:15:20;8.10;;;7.40;;
33491;SDS011;20010;51.488;7.232;2022-11-15T16:17:50;8.43;;;7.75;;
33491;SDS011;20010;51.488;7.232;2022-11-15T16:20:22;7.63;;;7.30;;
33491;SDS011;20010;51.488;7.232;2022-11-15T16:22:53;7.60;;;7.10;;
33491;SDS011;20010;51.488;7.232;2022-11-15T16:25:20;7.80;;;7.30;;
33491;SDS011;20010;51.488;7.232;2022-11-15T16:27:47;8.00;;;7.50;;
33491;SDS011;20010;51.488;7.232;2022-11-15T16:30:15;7.47;;;7.07;;
33491;SDS011;20010;51.488;7.232;2022-11-15T16:32:44;8.38;;;7.70;;
33491;SDS011;20010;51.488;7.232;2022-11-15T16:35:11;7.75;;;7.25;;
33491;SDS011;20010;51.488;7.232;2022-11-15T16:37:40;7.55;;;7.15;;
33491;SDS011;20010;51.488;7.232;2022-11-15T16:40:12;7.20;;;6.72;;
33491;SDS011;20010;51.488;7.232;2022-11-15T16:42:51;7.50;;;7.00;;
33491;SDS011;20010;51.488;7.232;2022-11-15T16:45:18;8.00;;;7.38;;
33491;SDS011;20010;51.488;7.232;2022-11-15T16:47:48;7.67;;;7.20;;
33491;SDS011;20010;51.488;7.232;2022-11-15T16:50:17;7.90;;;7.40;;
33491;SDS011;20010;51.488;7.232;2022-11-15T16:52:50;7.38;;;6.97;;
33491;SDS011;20010;51.488;7.232;2022-11-15T16:55:18;9.48;;;8.85;;
33491;SDS011;20010;51.488;7.232;2022-11-15T16:57:46;7.70;;;7.30;;
33491;SDS011;20010;51.488;7.232;2022-11-15T17:00:14;7.70;;;7.20;;
33491;SDS011;20010;51.488;7.232;2022-11-15T17:02:42;7.43;;;6.93;;
33491;SDS011;20010;51.488;7.232;2022-11-15T17:05:10;7.60;;;7.20;;
33491;SDS011;20010;51.488;7.232;2022-11-15T17:07:48;7.90;;;7.50;;
33491;SDS011;20010;51.488;7.232;2022-11-15T17:10:22;7.75;;;7.13;;
33491;SDS011;20010;51.488;7.232;2022-11-15T17:12:51;7.43;;;7.03;;